Time;durP1;ratioP1;P1;durP2;ratioP2;P2;SDS_P1;SDS_P2;PMS_P1;PMS_P2;Temp;Humidity;BMP_temperature;BMP_pressure;BME280_temperature;BME280_humidity;BME280_pressure;Samples;Min_cycle;Max_cycle;Signal;HPM_P1;HPM_P2
2022/10/12 00:00:28;;;;;;;13.18;7.20;;;;;;;3.93;100.00;101674.28;5040515;28;20066;-75
2022/10/12 00:02:54;;;;;;;17.33;7.63;;;;;;;3.89;100.00;101677.59;5041865;28;20055;-75
2022/10/12 00:05:19;;;;;;;9.48;7.38;;;;;;;3.81;99.56;101679.00;5039170;28;20037;-75
2022/10/12 00:07:44;;;;;;;15.07;7.47;;;;;;;3.82;99.97;101674.66;5042442;28;20032;-75
2022/10/12 00:10:09;;;;;;;11.80;7.70;;;;;;;3.78;100.00;101678.00;5039680;28;20038;-74
2022/10/12 00:12:35;;;;;;;12.57;8.75;;;;;;;3.75;100.00;101673.56;5041357;28;20044;-75
2022/10/12 00:15:00;;;;;;;11.82;7.95;;;;;;;3.81;100.00;101680.72;5040622;28;20033;-75
2022/10/12 00:17:25;;;;;;;11.73;8.93;;;;;;;3.77;100.00;101669.25;5040000;28;20048;-75
2022/10/12 00:19:51;;;;;;;11.25;7.65;;;;;;;3.73;100.00;101670.88;5041816;28;20449;-75
2022/10/12 00:22:16;;;;;;;16.55;8.05;;;;;;;3.75;100.00;101673.56;5038853;28;20483;-75
2022/10/12 00:24:41;;;;;;;12.27;7.63;;;;;;;3.74;99.88;101683.06;5038957;28;20044;-74
2022/10/12 00:27:07;;;;;;;12.93;9.07;;;;;;;3.67;99.37;101673.25;5041481;28;20498;-75
2022/10/12 00:29:32;;;;;;;12.60;8.13;;;;;;;3.64;100.00;101680.03;5040224;28;20033;-75
2022/10/12 00:31:57;;;;;;;10.32;6.72;;;;;;;3.59;99.46;101684.19;5040463;28;20037;-74
2022/10/12 00:34:23;;;;;;;12.75;8.38;;;;;;;3.49;99.69;101681.22;5041445;28;20046;-74
2022/10/12 00:36:48;;;;;;;15.43;8.38;;;;;;;3.47;100.00;101682.88;5041531;28;20051;-75
2022/10/12 00:39:13;;;;;;;12.57;8.07;;;;;;;3.45;100.00;101684.50;5038905;28;20038;-75
2022/10/12 00:41:40;;;;;;;10.25;8.25;;;;;;;3.43;100.00;101686.19;5045098;28;20034;-75
2022/10/12 00:44:36;;;;;;;12.13;8.40;;;;;;;3.44;100.00;101685.34;5041036;28;20033;-74
2022/10/12 00:47:24;;;;;;;10.93;7.97;;;;;;;3.41;100.00;101690.44;5040457;28;20049;-74
2022/10/12 00:49:55;;;;;;;20.58;8.80;;;;;;;3.34;100.00;101696.22;5027152;28;20084;-75
2022/10/12 00:52:26;;;;;;;12.57;8.13;;;;;;;3.32;100.00;101697.00;5040287;28;20034;-75
2022/10/12 00:54:53;;;;;;;30.60;9.95;;;;;;;3.27;100.00;101695.09;5042771;28;20033;-75
2022/10/12 00:57:20;;;;;;;15.82;8.60;;;;;;;3.28;100.00;101690.78;5043932;28;20192;-74
2022/10/12 00:59:51;;;;;;;16.17;8.60;;;;;;;3.31;100.00;101695.22;5044326;28;20855;-75
2022/10/12 01:02:18;;;;;;;11.30;8.02;;;;;;;3.29;100.00;101693.41;5042225;28;20041;-75
2022/10/12 01:04:43;;;;;;;11.85;8.10;;;;;;;3.25;100.00;101695.88;5044894;28;20040;-74
2022/10/12 01:07:09;;;;;;;10.32;7.63;;;;;;;3.21;99.69;101694.81;5043262;28;20411;-75
2022/10/12 01:09:34;;;;;;;11.07;8.15;;;;;;;3.17;99.56;101697.22;5044549;28;20067;-75
2022/10/12 01:11:59;;;;;;;11.07;7.50;;;;;;;3.13;100.00;101693.59;5043237;28;20122;-75
2022/10/12 01:14:25;;;;;;;13.02;9.23;;;;;;;3.15;100.00;101694.56;5044490;28;20086;-75
2022/10/12 01:17:10;;;;;;;12.57;7.32;;;;;;;3.16;100.00;101695.47;5041533;28;20029;-75
2022/10/12 01:19:49;;;;;;;11.82;8.35;;;;;;;3.16;100.00;101685.03;5043505;28;20033;-75
2022/10/12 01:22:19;;;;;;;15.40;8.55;;;;;;;3.16;100.00;101687.63;5043196;28;20220;-75
2022/10/12 01:25:16;;;;;;;10.52;7.43;;;;;;;3.15;100.00;101689.34;5042269;28;20524;-74
2022/10/12 01:27:48;;;;;;;10.32;7.25;;;;;;;3.14;100.00;101691.88;5044795;28;20032;-75
2022/10/12 01:30:18;;;;;;;9.65;7.47;;;;;;;3.11;99.98;101683.94;5042914;28;20045;-74
2022/10/12 01:33:10;;;;;;;10.23;7.45;;;;;;;3.05;99.91;101685.47;5046954;28;20025;-75
2022/10/12 01:35:50;;;;;;;12.82;8.18;;;;;;;3.05;100.00;101689.78;5038775;28;20084;-75
2022/10/12 01:38:41;;;;;;;10.18;7.20;;;;;;;3.07;100.00;101685.53;5043081;28;20558;-75
2022/10/12 01:41:19;;;;;;;12.07;8.75;;;;;;;3.07;100.00;101686.41;5043359;28;20045;-74
2022/10/12 01:43:45;;;;;;;15.75;8.30;;;;;;;3.02;100.00;101680.13;5057004;28;20912;-75
2022/10/12 01:46:19;;;;;;;14.15;8.70;;;;;;;3.01;100.00;101680.94;5043560;28;20108;-75
2022/10/12 01:48:48;;;;;;;17.65;8.38;;;;;;;3.00;100.00;101681.75;5043965;28;20037;-75
2022/10/12 01:51:34;;;;;;;17.10;8.02;;;;;;;2.97;100.00;101676.41;5037350;28;20041;-75
2022/10/12 01:54:12;;;;;;;13.25;8.05;;;;;;;2.93;100.00;101676.22;5040986;28;20439;-75
2022/10/12 01:56:47;;;;;;;11.35;8.50;;;;;;;2.83;99.08;101686.25;5042628;28;20044;-75
2022/10/12 01:59:39;;;;;;;10.55;7.28;;;;;;;2.81;99.28;101682.69;5041108;28;20120;-75
2022/10/12 02:02:05;;;;;;;;;;;;;;;2.76;99.64;101680.72;5041615;28;20038;-75
2022/10/12 02:04:38;;;;;;;11.82;8.15;;;;;;;2.70;99.57;101689.16;5043259;28;20276;-75
2022/10/12 02:07:11;;;;;;;15.77;8.30;;;;;;;2.65;99.72;101688.06;5043081;28;20098;-75
2022/10/12 02:09:38;;;;;;;13.25;7.78;;;;;;;2.69;100.00;101691.69;5041111;28;20052;-75
2022/10/12 02:12:11;;;;;;;11.25;8.43;;;;;;;2.72;100.00;101690.09;5043173;28;20048;-75
2022/10/12 02:14:47;;;;;;;13.93;7.90;;;;;;;2.72;100.00;101681.38;5043416;28;20128;-74
2022/10/12 02:17:17;;;;;;;10.73;7.05;;;;;;;2.69;100.00;101687.34;5041278;28;20041;-75
2022/10/12 02:19:49;;;;;;;13.57;7.20;;;;;;;2.68;100.00;101685.56;5043983;28;20483;-75
2022/10/12 02:22:16;;;;;;;7.82;6.82;;;;;;;2.66;100.00;101686.34;5040384;28;20033;-75
2022/10/12 02:24:44;;;;;;;13.48;7.82;;;;;;;2.61;100.00;101681.78;5036354;28;20041;-75
2022/10/12 02:27:12;;;;;;;10.35;8.07;;;;;;;2.60;100.00;101684.34;5041784;28;20395;-74
2022/10/12 02:29:40;;;;;;;11.32;7.53;;;;;;;2.61;100.00;101684.41;5041354;28;20041;-75
2022/10/12 02:32:14;;;;;;;15.43;8.98;;;;;;;2.66;100.00;101688.94;5043714;28;20029;-73
2022/10/12 02:34:46;;;;;;;11.23;7.32;;;;;;;2.64;100.00;101683.66;5041450;28;20049;-75
2022/10/12 02:37:45;;;;;;;13.55;7.53;;;;;;;2.61;100.00;101678.31;5040526;28;20042;-75
2022/10/12 02:40:25;;;;;;;13.80;7.50;;;;;;;2.56;100.00;101675.47;5045925;28;20068;-75
2022/10/12 02:42:54;;;;;;;12.27;7.63;;;;;;;2.54;100.00;101681.44;5043010;28;20040;-74
2022/10/12 02:45:21;;;;;;;12.50;7.13;;;;;;;2.49;100.00;101673.44;5043630;28;20040;-75
2022/10/12 02:47:51;;;;;;;7.38;6.47;;;;;;;2.45;100.00;101671.50;5041421;28;20399;-75
2022/10/12 02:50:20;;;;;;;14.00;7.85;;;;;;;2.43;100.00;101670.53;5039431;28;20037;-75
2022/10/12 02:52:46;;;;;;;12.35;6.70;;;;;;;2.43;100.00;101662.72;5043108;28;20115;-75
2022/10/12 02:55:12;;;;;;;10.10;6.63;;;;;;;2.43;100.00;101667.94;5039916;28;20377;-75
2022/10/12 02:57:38;;;;;;;8.95;7.10;;;;;;;2.45;100.00;101673.22;5042499;28;20074;-75
2022/10/12 03:00:03;;;;;;;13.50;7.15;;;;;;;2.49;100.00;101668.25;5041147;28;20037;-75
2022/10/12 03:02:29;;;;;;;9.60;6.80;;;;;;;2.50;100.00;101670.00;5041429;28;20048;-75
2022/10/12 03:04:54;;;;;;;10.27;6.93;;;;;;;2.45;100.00;101668.91;5042110;28;20033;-75
2022/10/12 03:07:19;;;;;;;7.38;6.20;;;;;;;2.38;100.00;101667.75;5040946;28;20064;-74
2022/10/12 03:09:45;;;;;;;8.05;6.07;;;;;;;2.31;100.00;101667.41;5043196;28;20033;-75
2022/10/12 03:12:10;;;;;;;8.40;6.28;;;;;;;2.24;100.00;101673.16;5040104;28;20095;-75
2022/10/12 03:14:36;;;;;;;8.30;6.03;;;;;;;2.19;100.00;101665.13;5041436;28;20029;-74
2022/10/12 03:17:02;;;;;;;8.27;5.88;;;;;;;2.16;100.00;101673.69;5040967;28;20037;-75
2022/10/12 03:19:27;;;;;;;9.95;7.05;;;;;;;2.14;100.00;101669.22;5040693;28;20846;-74
2022/10/12 03:21:52;;;;;;;11.07;6.30;;;;;;;2.06;100.00;101674.06;5045805;28;20041;-74
2022/10/12 03:24:18;;;;;;;10.65;7.00;;;;;;;2.11;100.00;101669.97;5039404;28;20214;-75
2022/10/12 03:26:43;;;;;;;7.03;6.13;;;;;;;2.14;100.00;101674.44;5039487;28;20056;-75
2022/10/12 03:29:09;;;;;;;10.02;6.53;;;;;;;2.14;100.00;101666.63;5042360;28;20036;-75
2022/10/12 03:31:34;;;;;;;12.25;7.40;;;;;;;2.16;100.00;101673.69;5040756;28;20558;-75
2022/10/12 03:33:59;;;;;;;6.85;6.15;;;;;;;2.09;99.86;101666.41;5043399;28;20024;-74
2022/10/12 03:36:25;;;;;;;10.13;6.32;;;;;;;2.08;100.00;101669.84;5043990;28;20051;-75
2022/10/12 03:38:50;;;;;;;6.90;5.78;;;;;;;2.07;100.00;101662.84;5039718;28;20049;-75
2022/10/12 03:41:15;;;;;;;8.35;6.68;;;;;;;2.07;100.00;101664.53;5042719;28;20084;-75
2022/10/12 03:43:41;;;;;;;10.25;6.28;;;;;;;2.03;99.99;101667.84;5039536;28;20042;-75
2022/10/12 03:46:06;;;;;;;6.45;5.53;;;;;;;2.00;100.00;101660.78;5041786;28;20036;-75
2022/10/12 03:48:31;;;;;;;7.70;6.43;;;;;;;2.02;100.00;101664.34;5040843;28;20045;-75
2022/10/12 03:50:57;;;;;;;8.82;6.47;;;;;;;1.99;99.99;101664.19;5041070;28;20039;-75
2022/10/12 03:53:22;;;;;;;10.10;6.05;;;;;;;2.00;100.00;101660.78;5045360;28;20037;-75
2022/10/12 03:55:47;;;;;;;11.23;6.15;;;;;;;1.95;99.61;101662.28;5045630;28;20090;-75
2022/10/12 03:58:13;;;;;;;6.95;6.15;;;;;;;1.93;99.86;101658.69;5039282;28;20089;-76
2022/10/12 04:00:38;;;;;;;6.45;5.78;;;;;;;1.85;98.97;101660.94;5042073;28;20111;-74
2022/10/12 04:03:04;;;;;;;6.30;5.68;;;;;;;1.88;99.97;101662.78;5040254;28;20060;-74
2022/10/12 04:05:30;;;;;;;6.97;6.07;;;;;;;1.87;99.69;101655.81;5040513;28;20041;-75
2022/10/12 04:07:56;;;;;;;10.95;6.78;;;;;;;1.83;99.88;101653.88;5041418;28;20029;-75
2022/10/12 04:10:21;;;;;;;12.23;6.70;;;;;;;1.80;99.91;101656.34;5039567;28;20227;-75
2022/10/12 04:12:46;;;;;;;8.88;6.47;;;;;;;1.77;99.95;101666.63;5042688;28;20036;-75
2022/10/12 04:15:13;;;;;;;10.68;5.72;;;;;;;1.78;99.92;101663.19;5039316;28;20400;-74
2022/10/12 04:17:38;;;;;;;11.82;6.45;;;;;;;1.81;100.00;101665.91;5041168;28;20037;-74
2022/10/12 04:20:04;;;;;;;11.63;8.15;;;;;;;1.86;100.00;101661.81;5041315;28;20044;-75
2022/10/12 04:22:29;;;;;;;12.95;7.65;;;;;;;1.82;100.00;101665.13;5038381;28;20037;-75
2022/10/12 04:24:54;;;;;;;9.73;7.13;;;;;;;1.83;100.00;101664.28;5040614;28;20026;-75
2022/10/12 04:27:20;;;;;;;11.23;6.30;;;;;;;1.91;100.00;101662.94;5049107;28;20068;-74
2022/10/12 04:29:45;;;;;;;7.07;6.07;;;;;;;1.94;100.00;101666.59;5043994;28;20039;-75
2022/10/12 04:32:11;;;;;;;11.32;7.53;;;;;;;1.89;100.00;101665.50;5045374;28;20033;-75
2022/10/12 04:34:36;;;;;;;13.98;8.93;;;;;;;1.83;100.00;101659.09;5045806;28;20036;-74
2022/10/12 04:37:02;;;;;;;12.73;7.88;;;;;;;1.87;100.00;101661.03;5046686;28;20053;-75
2022/10/12 04:39:27;;;;;;;12.48;6.75;;;;;;;1.88;100.00;101660.19;5048487;28;20037;-75
2022/10/12 04:41:53;;;;;;;6.78;6.07;;;;;;;1.82;100.00;101665.13;5044959;28;20053;-75
2022/10/12 04:44:18;;;;;;;8.07;6.35;;;;;;;1.83;100.00;101661.69;5045683;28;20041;-74
2022/10/12 04:46:43;;;;;;;7.68;6.40;;;;;;;1.78;100.00;101665.78;5042582;28;20440;-75
2022/10/12 04:49:09;;;;;;;10.77;6.47;;;;;;;1.69;100.00;101664.53;5044459;28;21664;-75
2022/10/12 04:51:34;;;;;;;8.10;6.50;;;;;;;1.64;100.00;101659.94;5044045;28;20033;-75
2022/10/12 04:53:59;;;;;;;8.02;6.57;;;;;;;1.59;100.00;101667.50;5044327;28;20048;-75
2022/10/12 04:56:25;;;;;;;9.35;6.25;;;;;;;1.61;100.00;101671.06;5045178;28;20110;-75
2022/10/12 04:58:50;;;;;;;11.02;7.72;;;;;;;1.62;100.00;101672.84;5049219;28;20032;-74
2022/10/12 05:01:16;;;;;;;8.25;6.65;;;;;;;1.65;100.00;101675.63;5042240;28;20033;-75
2022/10/12 05:03:41;;;;;;;8.98;7.00;;;;;;;1.68;100.00;101673.16;5044921;28;20036;-75
2022/10/12 05:06:06;;;;;;;10.10;6.43;;;;;;;1.77;100.00;101682.22;5042504;28;20037;-75
2022/10/12 05:08:32;;;;;;;10.27;6.43;;;;;;;1.78;100.00;101674.47;5042057;28;20473;-74
2022/10/12 05:10:58;;;;;;;8.10;6.70;;;;;;;1.75;100.00;101671.72;5044356;28;20045;-75
2022/10/12 05:13:23;;;;;;;13.18;7.25;;;;;;;1.70;100.00;101676.75;5045682;28;20049;-75
2022/10/12 05:15:49;;;;;;;9.63;7.28;;;;;;;1.69;100.00;101669.72;5041403;28;20056;-74
2022/10/12 05:18:14;;;;;;;7.95;7.15;;;;;;;1.69;100.00;101674.06;5044936;28;20108;-75
2022/10/12 05:20:40;;;;;;;8.57;7.05;;;;;;;1.70;100.00;101668.00;5039503;28;20411;-75
2022/10/12 05:23:05;;;;;;;9.65;7.30;;;;;;;1.74;100.00;101672.56;5042136;28;20621;-74
2022/10/12 05:25:31;;;;;;;9.63;6.88;;;;;;;1.77;100.00;101671.81;5043442;28;20063;-75
2022/10/12 05:27:56;;;;;;;8.45;6.38;;;;;;;1.78;100.00;101664.06;5038605;28;20450;-76
2022/10/12 05:30:22;;;;;;;10.27;7.32;;;;;;;1.80;100.00;101672.84;5044825;28;20033;-75
2022/10/12 05:32:48;;;;;;;14.68;7.55;;;;;;;1.77;100.00;101666.63;5042824;28;20075;-75
2022/10/12 05:35:13;;;;;;;14.00;7.75;;;;;;;1.80;100.00;101677.16;5044798;28;20513;-75
2022/10/12 05:37:39;;;;;;;11.63;8.27;;;;;;;1.89;100.00;101680.22;5041345;28;20406;-75
2022/10/12 05:40:04;;;;;;;11.30;7.65;;;;;;;1.95;100.00;101673.56;5043360;28;20032;-75
2022/10/12 05:42:30;;;;;;;39.40;9.98;;;;;;;1.96;100.00;101677.06;5042200;28;20415;-75
2022/10/12 05:44:55;;;;;;;25.20;8.15;;;;;;;1.91;100.00;101673.34;5044411;28;20091;-75
2022/10/12 05:47:20;;;;;;;12.82;8.00;;;;;;;1.87;100.00;101684.47;5041096;28;20030;-76
2022/10/12 05:49:46;;;;;;;11.85;7.72;;;;;;;1.85;100.00;101686.09;5044024;28;20087;-75
2022/10/12 05:52:11;;;;;;;18.10;8.20;;;;;;;1.86;100.00;101677.44;5040640;28;20036;-75
2022/10/12 05:54:36;;;;;;;12.30;8.27;;;;;;;1.91;100.00;101678.56;5042703;28;20115;-75
2022/10/12 05:57:02;;;;;;;12.02;8.00;;;;;;;1.95;100.00;101678.78;5042002;28;20043;-75
2022/10/12 05:59:27;;;;;;;14.40;8.35;;;;;;;1.96;100.00;101688.41;5043921;28;20040;-75
2022/10/12 06:01:52;;;;;;;10.15;7.80;;;;;;;2.04;100.00;101690.44;5040913;28;20037;-75
2022/10/12 06:04:18;;;;;;;16.85;8.63;;;;;;;2.07;100.00;101685.38;5044090;28;20116;-75
2022/10/12 06:06:43;;;;;;;17.83;8.80;;;;;;;2.16;100.00;101689.31;5041425;28;20065;-75
2022/10/12 06:09:08;;;;;;;15.18;8.68;;;;;;;2.29;100.00;101684.69;5043104;28;20040;-75
2022/10/12 06:11:34;;;;;;;26.25;11.32;;;;;;;2.38;100.00;101690.28;5042712;28;20103;-75
2022/10/12 06:13:59;;;;;;;15.57;10.35;;;;;;;2.48;100.00;101691.59;5043524;28;20029;-74
2022/10/12 06:16:24;;;;;;;23.40;10.20;;;;;;;2.58;100.00;101689.47;5046874;28;20060;-75
2022/10/12 06:18:50;;;;;;;13.05;8.90;;;;;;;2.64;100.00;101689.75;5047724;28;20080;-75
2022/10/12 06:21:15;;;;;;;16.48;9.20;;;;;;;2.79;100.00;101693.88;5040037;28;20056;-75
2022/10/12 06:23:40;;;;;;;13.57;9.38;;;;;;;2.88;100.00;101699.47;5041651;28;20069;-74
2022/10/12 06:26:06;;;;;;;22.23;9.68;;;;;;;2.95;100.00;101698.03;5042248;28;20475;-75
2022/10/12 06:28:31;;;;;;;12.27;8.18;;;;;;;2.98;100.00;101695.56;5042608;28;20033;-75
2022/10/12 06:30:58;;;;;;;15.85;9.55;;;;;;;3.11;100.00;101691.75;5041376;28;20376;-75
2022/10/12 06:33:25;;;;;;;15.70;10.15;;;;;;;3.24;100.00;101694.94;5042285;28;20060;-75
2022/10/12 06:35:51;;;;;;;17.15;9.68;;;;;;;3.34;100.00;101690.13;5045451;28;20032;-75
2022/10/12 06:38:16;;;;;;;10.30;8.73;;;;;;;3.43;100.00;101686.19;5043428;28;20045;-74
2022/10/12 06:40:42;;;;;;;13.38;8.68;;;;;;;3.54;100.00;101704.91;5042099;28;20056;-75
2022/10/12 06:43:08;;;;;;;13.23;8.27;;;;;;;3.59;100.00;101692.94;5042553;28;20499;-75
2022/10/12 06:45:33;;;;;;;11.05;7.90;;;;;;;3.65;100.00;101692.28;5043430;28;20478;-75
2022/10/12 06:47:59;;;;;;;12.38;8.73;;;;;;;3.74;100.00;101693.53;5043974;28;20033;-74
2022/10/12 06:50:25;;;;;;;14.88;8.05;;;;;;;3.86;100.00;101693.13;5042791;28;20064;-75
2022/10/12 06:52:51;;;;;;;15.13;8.70;;;;;;;3.99;100.00;101694.50;5045532;28;20033;-75
2022/10/12 06:55:17;;;;;;;16.95;8.73;;;;;;;4.10;100.00;101687.09;5041355;28;20549;-75
2022/10/12 06:57:42;;;;;;;27.67;11.80;;;;;;;4.21;100.00;101688.38;5041079;28;20041;-75
2022/10/12 07:00:08;;;;;;;24.92;13.55;;;;;;;4.28;100.00;101695.63;5042640;28;20044;-75
2022/10/12 07:02:34;;;;;;;19.08;10.95;;;;;;;4.37;100.00;101687.25;5039915;28;20116;-76
2022/10/12 07:05:00;;;;;;;12.82;9.35;;;;;;;4.47;100.00;101688.47;5042869;28;20534;-75
2022/10/12 07:07:25;;;;;;;13.85;10.88;;;;;;;4.55;100.00;101692.28;5040482;28;20072;-75
2022/10/12 07:09:51;;;;;;;18.20;10.70;;;;;;;4.63;100.00;101690.81;5041789;28;20041;-75
2022/10/12 07:12:17;;;;;;;17.77;10.48;;;;;;;4.72;100.00;101685.06;5041826;28;20064;-75
2022/10/12 07:14:42;;;;;;;17.98;9.82;;;;;;;4.79;100.00;101687.94;5039118;28;20116;-75
2022/10/12 07:17:07;;;;;;;11.93;9.18;;;;;;;4.89;100.00;101688.25;5040391;28;20041;-75
2022/10/12 07:19:33;;;;;;;12.98;7.82;;;;;;;4.97;100.00;101692.03;5042857;28;20090;-76
2022/10/12 07:21:58;;;;;;;14.43;9.13;;;;;;;5.05;100.00;101690.56;5039130;28;20037;-75
2022/10/12 07:24:23;;;;;;;17.05;8.98;;;;;;;5.14;100.00;101684.78;5040820;28;20029;-75
2022/10/12 07:26:50;;;;;;;14.25;8.70;;;;;;;5.26;100.00;101691.31;5041060;28;20029;-76
2022/10/12 07:29:15;;;;;;;14.95;8.25;;;;;;;5.41;100.00;101690.06;5041874;28;20079;-75
2022/10/12 07:31:41;;;;;;;11.27;8.65;;;;;;;5.56;99.98;101695.81;5043446;28;20483;-76
2022/10/12 07:34:06;;;;;;;9.45;8.38;;;;;;;5.68;100.00;101693.56;5042590;28;20046;-75
2022/10/12 07:36:32;;;;;;;18.80;8.73;;;;;;;5.81;99.67;101693.97;5039652;28;20041;-76
2022/10/12 07:38:57;;;;;;;13.23;8.27;;;;;;;5.88;99.99;101693.34;5041775;28;20041;-75
2022/10/12 07:41:22;;;;;;;15.48;8.48;;;;;;;5.99;100.00;101697.19;5039677;28;20040;-75
2022/10/12 07:43:53;;;;;;;21.42;7.88;;;;;;;6.12;99.90;101691.50;5045093;28;20033;-76
2022/10/12 07:46:18;;;;;;;20.52;8.13;;;;;;;6.20;99.89;101690.84;5045520;28;20487;-75
2022/10/12 07:48:43;;;;;;;12.90;8.65;;;;;;;6.32;100.00;101688.59;5040559;28;20110;-75
2022/10/12 07:51:09;;;;;;;15.73;8.80;;;;;;;6.48;99.78;101685.56;5045921;28;20115;-76
2022/10/12 07:53:36;;;;;;;15.65;8.25;;;;;;;6.61;99.71;101684.19;5045479;28;20032;-75
2022/10/12 07:56:04;;;;;;;14.45;7.75;;;;;;;6.70;99.72;101689.69;5037957;28;20403;-76
2022/10/12 07:58:29;;;;;;;16.88;8.15;;;;;;;6.85;100.00;101684.00;5044631;28;20032;-76
2022/10/12 08:00:54;;;;;;;11.57;8.23;;;;;;;6.99;99.70;101687.84;5043315;28;20044;-74
2022/10/12 08:03:20;;;;;;;17.70;8.23;;;;;;;7.11;99.32;101686.44;5050721;28;20043;-75
2022/10/12 08:05:45;;;;;;;13.25;7.80;;;;;;;7.21;99.24;101677.94;5048560;28;20021;-75
2022/10/12 08:08:10;;;;;;;13.63;7.93;;;;;;;7.28;99.32;101684.22;5048396;28;20126;-75
2022/10/12 08:10:36;;;;;;;19.83;8.25;;;;;;;7.32;99.24;101673.84;5050044;28;20562;-75
2022/10/12 08:13:02;;;;;;;10.75;7.63;;;;;;;7.46;98.93;101671.56;5043886;28;20487;-76
2022/10/12 08:15:28;;;;;;;13.02;8.30;;;;;;;7.57;98.92;101669.19;5046171;28;20075;-75
2022/10/12 08:17:53;;;;;;;18.27;8.23;;;;;;;7.70;98.84;101671.25;5043015;28;20069;-76
2022/10/12 08:20:18;;;;;;;15.35;7.95;;;;;;;7.86;98.11;101670.81;5043752;28;20041;-75
2022/10/12 08:22:44;;;;;;;12.68;7.30;;;;;;;7.98;97.49;101672.81;5044249;28;20095;-76
2022/10/12 08:25:09;;;;;;;13.43;7.72;;;;;;;8.08;97.17;101668.66;5048834;28;20082;-75
2022/10/12 08:27:34;;;;;;;11.70;7.35;;;;;;;8.25;97.81;101675.19;5049010;28;20029;-76
2022/10/12 08:30:00;;;;;;;11.90;6.88;;;;;;;8.45;96.69;101666.84;5043044;28;20085;-76
2022/10/12 08:32:26;;;;;;;15.38;7.65;;;;;;;8.61;95.60;101663.66;5046117;28;20457;-76
2022/10/12 08:34:51;;;;;;;18.02;7.22;;;;;;;8.75;95.01;101664.84;5055076;28;20071;-75
2022/10/12 08:37:16;;;;;;;13.88;7.25;;;;;;;8.89;94.25;101664.22;5043357;28;20037;-76
2022/10/12 08:39:42;;;;;;;12.18;7.00;;;;;;;9.03;94.15;101664.44;5043980;28;20483;-76
2022/10/12 08:42:32;;;;;;;14.40;6.90;;;;;;;9.13;92.65;101661.13;5044479;28;20525;-75
2022/10/12 08:45:26;;;;;;;11.35;7.03;;;;;;;9.17;91.24;101661.22;5044536;28;20238;-76
2022/10/12 08:47:57;;;;;;;15.45;8.02;;;;;;;9.23;91.01;101656.91;5046618;28;20369;-76
2022/10/12 08:50:30;;;;;;;12.25;6.90;;;;;;;9.32;91.40;101659.69;5047444;28;20037;-76
2022/10/12 08:53:14;;;;;;;14.18;7.13;;;;;;;9.46;90.70;101652.94;5046794;28;20035;-76
2022/10/12 08:55:43;;;;;;;12.10;7.13;;;;;;;9.63;91.17;101651.41;5046732;28;20033;-75
2022/10/12 08:58:20;;;;;;;12.82;7.57;;;;;;;9.83;90.47;101656.13;5044509;28;20522;-76
2022/10/12 09:00:53;;;;;;;14.05;6.78;;;;;;;9.99;89.75;101652.84;5043088;28;20103;-76
2022/10/12 09:03:34;;;;;;;10.10;6.70;;;;;;;10.12;88.71;101653.03;5043128;28;20214;-76
2022/10/12 09:06:19;;;;;;;17.33;7.35;;;;;;;10.23;87.10;101652.28;5044353;28;20044;-76
2022/10/12 09:09:11;;;;;;;14.55;6.82;;;;;;;10.23;85.89;101644.38;5048877;28;20064;-75
2022/10/12 09:12:00;;;;;;;14.63;7.10;;;;;;;10.36;86.81;101645.44;5042145;28;20047;-76
2022/10/12 09:14:30;;;;;;;12.48;6.13;;;;;;;10.50;86.32;101642.97;5045423;28;20037;-76
2022/10/12 09:16:56;;;;;;;14.88;6.55;;;;;;;10.59;85.23;101637.81;5042989;28;20037;-75
2022/10/12 09:19:35;;;;;;;12.00;6.60;;;;;;;10.78;84.75;101632.75;5044446;28;20059;-76
2022/10/12 09:22:02;;;;;;;12.32;6.28;;;;;;;10.95;83.73;101639.06;5049290;28;20418;-75
2022/10/12 09:24:33;;;;;;;13.57;7.15;;;;;;;11.05;82.99;101633.00;5042992;28;20048;-76
2022/10/12 09:26:59;;;;;;;13.63;6.85;;;;;;;11.21;82.84;101639.31;5045024;28;20064;-75
2022/10/12 09:29:30;;;;;;;11.20;6.43;;;;;;;11.29;81.57;101637.66;5042723;28;20043;-76
2022/10/12 09:32:12;;;;;;;11.85;5.75;;;;;;;11.43;81.31;101636.88;5044294;28;20509;-76
2022/10/12 09:34:38;;;;;;;10.50;6.20;;;;;;;11.58;81.32;101636.97;5044445;28;20056;-76
2022/10/12 09:37:04;;;;;;;10.10;5.72;;;;;;;11.70;80.97;101634.41;5044855;28;20063;-76
2022/10/12 09:39:32;;;;;;;12.52;5.65;;;;;;;11.79;79.03;101617.75;5047809;28;20563;-76
2022/10/12 09:41:58;;;;;;;9.38;6.00;;;;;;;11.87;78.65;101625.72;5042002;28;20076;-76
2022/10/12 09:44:33;;;;;;;19.85;6.30;;;;;;;11.85;78.63;101618.66;5044721;28;20490;-76
2022/10/12 09:47:22;;;;;;;12.43;6.85;;;;;;;11.94;78.00;101620.47;5055225;28;20037;-76
2022/10/12 09:49:50;;;;;;;8.45;5.53;;;;;;;12.10;78.34;101617.94;5044149;28;20098;-76
2022/10/12 09:52:19;;;;;;;9.27;5.07;;;;;;;12.20;77.08;101620.63;5046685;28;20080;-76
2022/10/12 09:54:53;;;;;;;17.40;6.95;;;;;;;12.35;75.68;101613.63;5047248;28;20041;-76
2022/10/12 09:57:21;;;;;;;8.50;6.13;;;;;;;12.50;76.53;101613.69;5042832;28;20076;-75
2022/10/12 09:59:47;;;;;;;11.07;5.95;;;;;;;12.58;74.93;101617.25;5048987;28;20545;-75
2022/10/12 10:02:16;;;;;;;8.80;6.05;;;;;;;12.67;74.82;101619.91;5048540;28;20065;-75
2022/10/12 10:04:44;;;;;;;8.65;5.47;;;;;;;12.69;73.28;101610.19;5043156;28;20036;-74
2022/10/12 10:07:23;;;;;;;8.23;6.15;;;;;;;12.82;72.75;101611.13;5028851;28;20052;-75
2022/10/12 10:10:11;;;;;;;10.32;5.70;;;;;;;13.02;72.44;101616.47;5047802;28;20124;-75
2022/10/12 10:12:42;;;;;;;12.13;6.00;;;;;;;13.22;71.85;101620.88;5046664;28;20037;-75
2022/10/12 10:15:23;;;;;;;8.93;6.03;;;;;;;13.28;71.10;101612.94;5045007;28;20033;-76
2022/10/12 10:17:52;;;;;;;7.82;5.70;;;;;;;13.27;71.05;101609.41;5046691;28;20128;-75
2022/10/12 10:20:35;;;;;;;9.63;6.15;;;;;;;13.36;70.42;101605.88;5043814;28;20068;-75
2022/10/12 10:23:03;;;;;;;9.57;5.90;;;;;;;13.47;70.95;101605.88;5042812;28;20044;-75
2022/10/12 10:25:29;;;;;;;14.48;7.88;;;;;;;13.59;71.27;101596.13;5042233;28;20033;-75
2022/10/12 10:28:21;;;;;;;14.90;7.70;;;;;;;13.80;70.05;101600.50;5048721;28;20411;-75
2022/10/12 10:31:04;;;;;;;9.68;6.88;;;;;;;13.97;69.28;101596.94;5041314;28;20484;-75
2022/10/12 10:33:34;;;;;;;8.05;6.28;;;;;;;14.07;68.04;101588.06;5041287;28;20057;-75
2022/10/12 10:36:11;;;;;;;11.05;5.43;;;;;;;14.09;67.83;101590.69;5043461;28;20072;-76
2022/10/12 10:39:01;;;;;;;13.85;7.45;;;;;;;14.20;67.84;101588.88;5041698;28;20116;-75
2022/10/12 10:41:32;;;;;;;14.18;5.80;;;;;;;14.32;67.36;101578.19;5043499;28;20048;-75
2022/10/12 10:43:58;;;;;;;11.75;6.18;;;;;;;14.38;66.64;101575.53;5039509;28;20064;-75
2022/10/12 10:46:28;;;;;;;9.50;6.93;;;;;;;14.48;66.63;101585.19;5040372;28;20480;-75
2022/10/12 10:48:57;;;;;;;10.88;5.00;;;;;;;14.50;64.56;101579.88;5039520;28;20083;-76
2022/10/12 10:51:43;;;;;;;6.70;5.40;;;;;;;14.53;61.44;101574.56;5046870;28;20037;-75
2022/10/12 10:54:24;;;;;;;10.13;5.88;;;;;;;14.65;64.08;101570.97;5042928;28;20040;-76
2022/10/12 10:56:53;;;;;;;10.98;5.28;;;;;;;14.66;61.93;101567.41;5040859;28;20033;-76
2022/10/12 10:59:33;;;;;;;13.30;6.38;;;;;;;14.55;61.09;101564.84;5042004;28;20506;-75
2022/10/12 11:02:08;;;;;;;10.18;5.80;;;;;;;14.47;61.35;101567.50;5043302;28;20041;-75
2022/10/12 11:04:39;;;;;;;10.30;5.22;;;;;;;14.44;60.50;101559.56;5041195;28;20029;-75
2022/10/12 11:07:15;;;;;;;11.35;5.43;;;;;;;14.61;61.87;101558.59;5039287;28;20040;-75
2022/10/12 11:09:44;;;;;;;9.80;5.45;;;;;;;14.71;61.24;101552.34;5042806;28;20028;-75
2022/10/12 11:12:20;;;;;;;9.55;5.10;;;;;;;14.71;59.24;101546.13;5044283;28;20151;-75
2022/10/12 11:14:50;;;;;;;10.77;6.40;;;;;;;14.79;59.86;101550.50;5046862;28;20120;-74
2022/10/12 11:17:21;;;;;;;14.02;5.95;;;;;;;14.92;58.80;101547.75;5046198;28;20040;-75
2022/10/12 11:19:54;;;;;;;9.00;6.10;;;;;;;15.05;58.36;101546.75;5042674;28;20041;-74
2022/10/12 11:22:29;;;;;;;17.77;7.10;;;;;;;15.31;58.02;101538.53;5047016;28;20115;-75
2022/10/12 11:25:37;;;;;;;18.98;7.15;;;;;;;15.55;56.08;101535.63;5045238;28;20032;-76
2022/10/12 11:28:06;;;;;;;12.00;6.57;;;;;;;15.77;57.72;101532.75;4999267;28;20057;-75
2022/10/12 11:30:39;;;;;;;14.45;6.95;;;;;;;16.05;56.28;101527.97;5046388;28;20043;-73